createdAt,value
2019-04-06T00:00:00.513Z,99.90
2019-04-06T00:02:33.362Z,99.90
2019-04-06T00:05:02.024Z,99.90
2019-04-06T00:07:30.555Z,99.90
2019-04-06T00:09:59.205Z,99.90
2019-04-06T00:12:27.920Z,99.90
2019-04-06T00:14:56.918Z,99.90
2019-04-06T00:17:25.318Z,99.90
2019-04-06T00:19:53.820Z,99.90
2019-04-06T00:22:22.195Z,99.90
2019-04-06T00:24:50.524Z,99.90
2019-04-06T00:27:19.602Z,99.90
2019-04-06T00:29:47.952Z,99.90
2019-04-06T00:32:27.098Z,99.90
2019-04-06T00:34:55.509Z,99.90
2019-04-06T00:37:23.987Z,99.90
2019-04-06T00:39:52.555Z,99.90
2019-04-06T00:42:21.052Z,99.90
2019-04-06T00:44:49.461Z,99.90
2019-04-06T00:47:17.967Z,99.90
2019-04-06T00:49:46.333Z,99.90
2019-04-06T00:52:14.620Z,99.90
2019-04-06T00:54:43.736Z,99.90
2019-04-06T00:57:12.235Z,99.90
2019-04-06T00:59:40.659Z,99.90
2019-04-06T01:02:09.477Z,99.90
2019-04-06T01:04:37.795Z,99.90
2019-04-06T01:07:06.097Z,99.90
2019-04-06T01:09:35.048Z,99.90
2019-04-06T01:12:03.489Z,99.90
2019-04-06T01:14:31.841Z,99.90
2019-04-06T01:17:00.409Z,99.90
2019-04-06T01:19:28.740Z,99.90
2019-04-06T01:21:57.089Z,99.90
2019-04-06T01:24:25.929Z,99.90
2019-04-06T01:26:54.233Z,99.90
2019-04-06T01:29:22.650Z,99.90
2019-04-06T01:31:51.222Z,99.90
2019-04-06T01:34:19.558Z,99.90
2019-04-06T01:36:48.035Z,99.90
2019-04-06T01:39:16.707Z,99.90
2019-04-06T01:41:45.327Z,99.90
2019-04-06T01:44:13.717Z,99.90
2019-04-06T01:46:42.584Z,99.90
2019-04-06T01:49:11.079Z,99.90
2019-04-06T01:51:39.391Z,99.90
2019-04-06T01:54:08.203Z,99.90
2019-04-06T01:56:36.827Z,99.90
2019-04-06T01:59:05.253Z,99.90
2019-04-06T02:01:38.730Z,99.90
2019-04-06T02:04:07.079Z,99.90
2019-04-06T02:06:35.532Z,99.90
2019-04-06T02:09:05.743Z,99.90
2019-04-06T02:11:34.204Z,99.90
2019-04-06T02:14:02.697Z,99.90
2019-04-06T02:16:31.227Z,99.90
2019-04-06T02:18:59.740Z,99.90
2019-04-06T02:21:28.091Z,99.90
2019-04-06T02:23:56.750Z,99.90
2019-04-06T02:26:30.958Z,99.90
2019-04-06T02:28:53.808Z,99.90
2019-04-06T02:31:26.564Z,99.90
2019-04-06T02:34:02.395Z,99.90
2019-04-06T02:36:37.163Z,99.90
2019-04-06T02:39:12.294Z,99.90
2019-04-06T02:41:57.102Z,99.90
2019-04-06T02:44:25.530Z,99.90
2019-04-06T02:46:54.012Z,99.90
2019-04-06T02:49:22.738Z,99.90
2019-04-06T02:51:51.089Z,99.90
2019-04-06T02:54:19.429Z,99.90
2019-04-06T02:56:48.436Z,99.90
2019-04-06T02:59:16.853Z,99.90
2019-04-06T03:01:45.203Z,99.90
2019-04-06T03:04:14.179Z,99.90
2019-04-06T03:06:42.611Z,99.90
2019-04-06T03:09:12.006Z,99.90
2019-04-06T03:11:39.815Z,99.90
2019-04-06T03:14:08.259Z,99.90
2019-04-06T03:16:36.701Z,99.90
2019-04-06T03:19:05.322Z,99.90
2019-04-06T03:21:34.182Z,99.90
2019-04-06T03:24:02.504Z,99.90
2019-04-06T03:26:31.419Z,99.90
2019-04-06T03:29:00.220Z,99.90
2019-04-06T03:31:28.759Z,99.90
2019-04-06T03:33:57.774Z,99.90
2019-04-06T03:36:25.904Z,99.90
2019-04-06T03:38:54.222Z,99.90
2019-04-06T03:41:23.054Z,99.90
2019-04-06T03:43:51.304Z,99.90
2019-04-06T03:46:19.796Z,99.90
2019-04-06T03:48:48.779Z,99.90
2019-04-06T03:51:16.920Z,99.90
2019-04-06T03:53:45.258Z,99.90
2019-04-06T03:56:14.409Z,99.90
2019-04-06T03:58:42.763Z,99.90
2019-04-06T04:01:11.192Z,99.90
2019-04-06T04:03:39.730Z,99.90
2019-04-06T04:06:08.190Z,99.90
2019-04-06T04:08:36.828Z,99.90
2019-04-06T04:11:06.344Z,99.90
2019-04-06T04:13:34.565Z,99.90
2019-04-06T04:16:02.946Z,99.90
2019-04-06T04:18:31.647Z,99.90
2019-04-06T04:21:00.451Z,99.90
2019-04-06T04:23:28.693Z,99.90
2019-04-06T04:25:57.257Z,99.90
2019-04-06T04:28:25.585Z,99.90
2019-04-06T04:30:54.304Z,99.90
2019-04-06T04:33:23.147Z,99.90
2019-04-06T04:35:51.541Z,99.90
2019-04-06T04:38:20.068Z,99.90
2019-04-06T04:40:48.907Z,99.90
2019-04-06T04:43:17.223Z,99.90
2019-04-06T04:45:46.371Z,99.90
2019-04-06T04:48:15.131Z,99.90
2019-04-06T04:50:43.841Z,99.90
2019-04-06T04:53:12.486Z,99.90
2019-04-06T04:55:41.309Z,99.90
2019-04-06T04:58:09.670Z,99.90
2019-04-06T05:00:38.125Z,99.90
2019-04-06T05:03:06.965Z,99.90
2019-04-06T05:05:36.165Z,99.90
2019-04-06T05:08:04.729Z,99.90
2019-04-06T05:10:33.546Z,99.90
2019-04-06T05:13:01.732Z,99.90
2019-04-06T05:15:54.132Z,99.90
2019-04-06T05:18:22.550Z,99.90
2019-04-06T05:20:50.901Z,99.90
2019-04-06T05:23:19.865Z,99.90
2019-04-06T05:25:48.158Z,99.90
2019-04-06T05:28:16.752Z,99.90
2019-04-06T05:30:45.628Z,99.90
2019-04-06T05:33:14.047Z,99.90
2019-04-06T05:35:42.404Z,99.90
2019-04-06T05:38:11.375Z,99.90
2019-04-06T05:40:40.003Z,99.90
2019-04-06T05:43:08.333Z,99.90
2019-04-06T05:45:37.154Z,99.90
2019-04-06T05:48:06.349Z,99.90
2019-04-06T05:50:34.802Z,99.90
2019-04-06T05:53:03.489Z,99.90
2019-04-06T05:55:31.845Z,99.90
2019-04-06T05:58:03.897Z,99.90
2019-04-06T06:00:29.098Z,99.90
2019-04-06T06:02:57.707Z,99.90
2019-04-06T06:05:26.476Z,99.90
2019-04-06T06:07:55.189Z,99.90
2019-04-06T06:10:23.828Z,99.90
2019-04-06T06:12:52.200Z,99.90
2019-04-06T06:15:21.031Z,99.90
2019-04-06T06:17:49.655Z,99.90
2019-04-06T06:20:18.150Z,99.90
2019-04-06T06:22:46.791Z,99.90
2019-04-06T06:25:16.238Z,99.90
2019-04-06T06:27:44.774Z,99.90
2019-04-06T06:30:13.460Z,99.90
2019-04-06T06:32:41.972Z,99.90
2019-04-06T06:35:10.478Z,99.90
2019-04-06T06:37:39.199Z,99.90
2019-04-06T06:40:07.777Z,99.90
2019-04-06T06:42:36.395Z,99.90
2019-04-06T06:45:05.478Z,99.90
2019-04-06T06:47:33.922Z,99.90
2019-04-06T06:50:02.273Z,99.90
2019-04-06T06:52:31.239Z,99.90
2019-04-06T06:54:59.368Z,99.90
2019-04-06T06:57:27.916Z,99.90
2019-04-06T06:59:56.817Z,99.90
2019-04-06T07:02:25.680Z,99.90
2019-04-06T07:04:54.107Z,99.90
2019-04-06T07:07:22.893Z,99.90
2019-04-06T07:09:51.066Z,99.90
2019-04-06T07:12:19.523Z,99.90
2019-04-06T07:14:48.238Z,99.90
2019-04-06T07:17:16.802Z,99.90
2019-04-06T07:19:45.344Z,99.90
2019-04-06T07:22:14.191Z,99.90
2019-04-06T07:24:42.554Z,99.90
2019-04-06T07:27:11.061Z,99.90
2019-04-06T07:29:39.791Z,99.90
2019-04-06T07:32:08.135Z,99.90
2019-04-06T07:34:36.793Z,99.90
2019-04-06T07:37:05.881Z,99.90
2019-04-06T07:39:34.247Z,99.90
2019-04-06T07:42:02.639Z,99.90
2019-04-06T07:44:31.549Z,99.90
2019-04-06T07:46:59.916Z,99.90
2019-04-06T07:49:28.319Z,99.90
2019-04-06T07:51:56.976Z,99.90
2019-04-06T07:54:25.660Z,99.90
2019-04-06T07:56:53.978Z,99.90
2019-04-06T07:59:22.655Z,98.90
2019-04-06T08:01:51.406Z,93.90
2019-04-06T08:04:19.784Z,94.00
2019-04-06T08:06:48.811Z,94.10
2019-04-06T08:09:17.154Z,90.10
2019-04-06T08:11:45.704Z,90.50
2019-04-06T08:14:14.523Z,90.00
2019-04-06T08:16:42.924Z,88.20
2019-04-06T08:19:11.304Z,83.40
2019-04-06T08:21:40.148Z,77.40
2019-04-06T08:24:08.595Z,58.30
2019-04-06T08:26:36.984Z,75.00
2019-04-06T08:29:05.694Z,64.10
2019-04-06T08:31:34.497Z,66.70
2019-04-06T08:34:02.905Z,61.00
2019-04-06T08:36:32.406Z,57.80
2019-04-06T08:39:00.768Z,57.20
2019-04-06T08:41:29.135Z,51.60
2019-04-06T08:43:57.984Z,50.40
2019-04-06T08:46:26.400Z,53.40
2019-04-06T08:48:54.708Z,52.60
2019-04-06T08:51:23.565Z,55.40
2019-04-06T08:53:52.273Z,50.00
2019-04-06T08:56:20.863Z,49.70
2019-04-06T08:58:49.181Z,47.00
2019-04-06T09:01:17.814Z,43.20
2019-04-06T09:03:46.044Z,44.10
2019-04-06T09:06:14.753Z,43.50
2019-04-06T09:08:43.185Z,45.40
2019-04-06T09:11:11.570Z,42.80
2019-04-06T09:13:40.497Z,44.50
2019-04-06T09:16:08.674Z,40.60
2019-04-06T09:18:37.193Z,38.80
2019-04-06T09:21:06.110Z,41.20
2019-04-06T09:23:34.365Z,38.90
2019-04-06T09:26:03.140Z,39.90
2019-04-06T09:28:31.873Z,39.80
2019-04-06T09:31:00.312Z,40.60
2019-04-06T09:33:29.301Z,36.30
2019-04-06T09:35:57.688Z,39.40
2019-04-06T09:38:26.103Z,37.80
2019-04-06T09:40:54.528Z,37.50
2019-04-06T09:43:23.264Z,38.20
2019-04-06T09:45:58.686Z,37.30
2019-04-06T09:48:36.221Z,35.80
2019-04-06T09:51:24.768Z,37.30
2019-04-06T09:54:05.672Z,37.30
2019-04-06T09:56:38.476Z,34.90
2019-04-06T09:59:12.337Z,36.70
2019-04-06T10:01:53.317Z,35.00
2019-04-06T10:04:35.206Z,33.50
2019-04-06T10:07:08.886Z,36.40
2019-04-06T10:09:42.054Z,34.10
2019-04-06T10:12:30.569Z,34.50
2019-04-06T10:15:21.671Z,33.10
2019-04-06T10:18:00.682Z,31.60
2019-04-06T10:20:43.190Z,30.10
2019-04-06T10:23:17.009Z,29.80
2019-04-06T10:25:50.850Z,28.80
2019-04-06T10:28:28.466Z,28.60
2019-04-06T10:31:11.509Z,27.40
2019-04-06T10:33:53.204Z,27.40
2019-04-06T10:38:28.572Z,27.60
2019-04-06T10:41:07.205Z,28.10
2019-04-06T10:43:40.930Z,25.70
2019-04-06T10:46:14.985Z,26.70
2019-04-06T10:48:53.658Z,25.30
2019-04-06T10:51:30.340Z,24.80
2019-04-06T10:54:37.281Z,24.90
2019-04-06T10:57:11.206Z,24.80
2019-04-06T10:59:44.764Z,26.00
2019-04-06T11:02:18.671Z,28.50
2019-04-06T11:04:55.577Z,24.60
2019-04-06T11:07:30.792Z,26.60
2019-04-06T11:10:05.441Z,26.90
2019-04-06T11:12:38.740Z,26.00
2019-04-06T11:15:14.763Z,24.40
2019-04-06T11:17:47.437Z,24.20
2019-04-06T11:20:25.236Z,25.00
2019-04-06T11:25:05.222Z,25.60
2019-04-06T11:27:38.872Z,26.70
2019-04-06T11:30:15.491Z,26.10
2019-04-06T11:34:51.540Z,24.80
2019-04-06T11:37:28.100Z,24.70
2019-04-06T11:40:02.138Z,23.40
2019-04-06T11:42:37.354Z,24.50
2019-04-06T11:45:27.036Z,23.80
2019-04-06T11:48:01.630Z,24.50
2019-04-06T11:50:37.273Z,24.10
2019-04-06T11:53:19.899Z,23.80
2019-04-06T11:56:56.186Z,24.00
2019-04-06T11:59:30.266Z,24.20
2019-04-06T12:02:06.607Z,25.00
2019-04-06T12:04:44.184Z,25.00
2019-04-06T12:07:35.470Z,24.50
2019-04-06T12:10:11.569Z,23.90
2019-04-06T12:12:44.998Z,24.00
2019-04-06T12:15:18.710Z,25.10
2019-04-06T12:17:54.478Z,27.70
2019-04-06T12:20:33.011Z,30.80
2019-04-06T12:23:07.072Z,33.00
2019-04-06T12:25:40.442Z,33.50
2019-04-06T12:28:20.922Z,33.60
2019-04-06T12:30:54.039Z,30.60
2019-04-06T12:33:29.901Z,27.20
2019-04-06T12:36:06.808Z,26.10
2019-04-06T12:38:43.763Z,27.10
2019-04-06T12:42:16.510Z,26.00
2019-04-06T12:45:24.452Z,24.80
2019-04-06T12:47:57.310Z,24.70
2019-04-06T12:50:31.869Z,24.30
2019-04-06T12:53:10.319Z,26.70
2019-04-06T12:55:45.462Z,24.70
2019-04-06T12:58:19.226Z,24.20
2019-04-06T13:00:54.477Z,23.40
2019-04-06T13:03:27.942Z,24.10
2019-04-06T13:06:02.216Z,24.80
2019-04-06T13:08:40.910Z,24.40
2019-04-06T13:11:16.099Z,24.50
2019-04-06T13:13:49.550Z,25.20
2019-04-06T13:16:25.888Z,24.60
2019-04-06T13:19:12.397Z,24.70
2019-04-06T13:22:01.404Z,25.70
2019-04-06T13:25:32.271Z,25.40
2019-04-06T13:28:12.332Z,24.60
2019-04-06T13:32:52.805Z,26.30
2019-04-06T13:35:25.685Z,29.70
2019-04-06T13:40:02.261Z,33.30
2019-04-06T13:42:37.718Z,34.50
2019-04-06T13:45:10.343Z,36.00
2019-04-06T13:47:46.964Z,36.20
2019-04-06T13:50:26.502Z,37.20
2019-04-06T13:53:16.992Z,36.30
2019-04-06T13:56:05.342Z,36.20
2019-04-06T13:58:40.944Z,36.90
2019-04-06T14:01:21.350Z,37.20
2019-04-06T14:03:57.112Z,37.20
2019-04-06T14:06:48.081Z,37.60
2019-04-06T14:09:26.073Z,37.90
2019-04-06T14:12:00.620Z,37.90
2019-04-06T14:14:34.335Z,37.60
2019-04-06T14:17:11.895Z,38.00
2019-04-06T14:19:44.951Z,37.80
2019-04-06T14:22:18.515Z,38.70
2019-04-06T14:24:51.500Z,37.80
2019-04-06T14:27:24.889Z,38.10
2019-04-06T14:29:59.123Z,38.30
2019-04-06T14:32:34.358Z,36.90
2019-04-06T14:35:13.158Z,37.60
2019-04-06T14:37:48.886Z,37.20
2019-04-06T14:40:24.845Z,37.50
2019-04-06T14:42:58.375Z,37.80
2019-04-06T14:45:32.593Z,37.70
2019-04-06T14:48:05.584Z,38.10
2019-04-06T14:50:39.622Z,38.10
2019-04-06T14:53:17.370Z,38.40
2019-04-06T14:55:52.456Z,38.50
2019-04-06T14:58:29.131Z,38.80
2019-04-06T15:01:07.207Z,39.20
2019-04-06T15:03:42.683Z,39.40
2019-04-06T15:06:17.520Z,39.20
2019-04-06T15:08:51.461Z,38.90
2019-04-06T15:11:37.469Z,39.80
2019-04-06T15:14:13.160Z,39.80
2019-04-06T15:16:45.471Z,39.90
2019-04-06T15:19:21.952Z,40.00
2019-04-06T15:22:02.467Z,40.70
2019-04-06T15:24:56.718Z,41.60
2019-04-06T15:28:00.664Z,41.40
2019-04-06T15:32:35.622Z,42.60
2019-04-06T15:35:14.177Z,42.10
2019-04-06T15:37:47.876Z,44.00
2019-04-06T15:40:25.052Z,43.10
2019-04-06T15:45:00.065Z,44.10
2019-04-06T15:47:36.674Z,44.10
2019-04-06T15:50:17.005Z,45.60
2019-04-06T15:52:56.443Z,46.30
2019-04-06T15:55:37.291Z,46.90
2019-04-06T16:00:15.565Z,49.30
2019-04-06T16:02:56.252Z,51.10
2019-04-06T16:05:31.216Z,50.40
2019-04-06T16:08:06.584Z,51.90
2019-04-06T16:11:12.249Z,53.60
2019-04-06T16:13:48.779Z,54.30
2019-04-06T16:16:21.870Z,55.00
2019-04-06T16:18:55.600Z,56.70
2019-04-06T16:21:31.714Z,57.80
2019-04-06T16:24:11.265Z,59.30
2019-04-06T16:26:50.134Z,61.60
2019-04-06T16:29:23.669Z,60.90
2019-04-06T16:31:57.738Z,64.50
2019-04-06T16:36:34.193Z,68.10
2019-04-06T16:39:38.846Z,72.30
2019-04-06T16:42:12.242Z,78.80
2019-04-06T16:44:45.320Z,82.20
2019-04-06T16:47:18.729Z,86.00
2019-04-06T16:49:52.657Z,86.10
2019-04-06T16:52:27.238Z,90.50
2019-04-06T16:55:31.328Z,92.20
2019-04-06T16:58:09.068Z,93.50
2019-04-06T17:01:41.345Z,94.80
2019-04-06T17:05:17.372Z,95.40
2019-04-06T17:07:53.351Z,95.60
2019-04-06T17:10:28.921Z,96.80
2019-04-06T17:13:04.251Z,96.30
2019-04-06T17:15:36.906Z,97.50
2019-04-06T17:18:21.011Z,98.80
2019-04-06T17:20:58.942Z,99.30
2019-04-06T17:23:35.178Z,99.60
2019-04-06T17:26:09.434Z,99.90
2019-04-06T17:28:43.511Z,99.90
2019-04-06T17:31:17.362Z,99.90
2019-04-06T17:34:54.462Z,99.90
2019-04-06T17:37:32.057Z,99.90
2019-04-06T17:42:09.876Z,99.90
2019-04-06T17:44:52.889Z,99.90
2019-04-06T17:47:26.794Z,99.90
2019-04-06T17:50:00.431Z,99.90
2019-04-06T17:53:36.663Z,99.90
2019-04-06T17:56:10.631Z,99.90
2019-04-06T17:58:51.902Z,99.90
2019-04-06T18:01:39.332Z,99.90
2019-04-06T18:04:22.741Z,99.90
2019-04-06T18:06:56.093Z,99.90
2019-04-06T18:09:29.904Z,99.90
2019-04-06T18:12:03.763Z,99.90
2019-04-06T18:14:32.985Z,99.90
2019-04-06T18:17:01.708Z,99.90
2019-04-06T18:19:30.189Z,99.90
2019-04-06T18:21:59.497Z,99.90
2019-04-06T18:24:27.411Z,99.90
2019-04-06T18:26:56.203Z,99.90
2019-04-06T18:29:24.763Z,99.90
2019-04-06T18:32:01.416Z,99.90
2019-04-06T18:34:29.994Z,99.90
2019-04-06T18:37:05.645Z,99.90
2019-04-06T18:39:34.583Z,99.90
2019-04-06T18:42:03.339Z,99.90
2019-04-06T18:44:32.021Z,99.90
2019-04-06T18:47:00.847Z,99.90
2019-04-06T18:49:29.493Z,99.90
2019-04-06T18:51:57.747Z,99.90
2019-04-06T18:54:26.971Z,99.90
2019-04-06T18:56:55.749Z,99.90
2019-04-06T18:59:23.716Z,99.90
2019-04-06T19:01:52.344Z,99.90
2019-04-06T19:04:21.419Z,99.90
2019-04-06T19:06:50.322Z,99.90
2019-04-06T19:09:23.496Z,99.90
2019-04-06T19:11:54.319Z,99.90
2019-04-06T19:14:15.188Z,99.90
2019-04-06T19:16:44.269Z,99.90
2019-04-06T19:19:12.593Z,99.90
2019-04-06T19:21:41.131Z,99.90
2019-04-06T19:24:09.985Z,99.90
2019-04-06T19:26:38.738Z,99.90
2019-04-06T19:29:07.658Z,99.90
2019-04-06T19:31:36.463Z,99.90
2019-04-06T19:34:04.873Z,99.90
2019-04-06T19:36:33.156Z,99.90
2019-04-06T19:39:01.842Z,99.90
2019-04-06T19:41:30.610Z,99.90
2019-04-06T19:43:58.981Z,99.90
2019-04-06T19:46:28.882Z,99.90
2019-04-06T19:48:57.484Z,99.90
2019-04-06T19:51:26.444Z,99.90
2019-04-06T19:53:54.947Z,99.90
2019-04-06T19:56:23.714Z,99.90
2019-04-06T19:58:52.435Z,99.90
2019-04-06T20:01:21.171Z,99.90
2019-04-06T20:03:50.081Z,99.90
2019-04-06T20:06:18.667Z,99.90
2019-04-06T20:08:47.394Z,99.90
2019-04-06T20:11:15.569Z,99.90
2019-04-06T20:13:44.412Z,99.90
2019-04-06T20:16:13.099Z,99.90
2019-04-06T20:18:41.680Z,99.90
2019-04-06T20:21:10.747Z,99.90
2019-04-06T20:23:39.317Z,99.90
2019-04-06T20:26:07.935Z,99.90
2019-04-06T20:28:36.373Z,99.90
2019-04-06T20:31:05.109Z,99.90
2019-04-06T20:33:33.961Z,99.90
2019-04-06T20:36:02.462Z,99.90
2019-04-06T20:38:31.204Z,99.90
2019-04-06T20:40:59.375Z,99.90
2019-04-06T20:43:27.701Z,99.90
2019-04-06T20:45:56.586Z,99.90
2019-04-06T20:48:25.730Z,99.90
2019-04-06T20:50:54.088Z,99.90
2019-04-06T20:53:23.067Z,99.90
2019-04-06T20:55:51.381Z,99.90
2019-04-06T20:58:19.816Z,99.90
2019-04-06T21:00:49.111Z,99.90
2019-04-06T21:03:16.950Z,99.90
2019-04-06T21:05:45.365Z,99.90
2019-04-06T21:08:14.392Z,99.90
2019-04-06T21:10:43.015Z,99.90
2019-04-06T21:13:11.178Z,99.90
2019-04-06T21:15:39.566Z,99.90
2019-04-06T21:18:07.947Z,99.90
2019-04-06T21:20:36.834Z,99.90
2019-04-06T21:23:05.151Z,99.90
2019-04-06T21:25:34.109Z,99.90
2019-04-06T21:28:02.640Z,99.90
2019-04-06T21:30:31.350Z,99.90
2019-04-06T21:33:00.133Z,99.90
2019-04-06T21:35:29.010Z,99.90
2019-04-06T21:37:57.098Z,99.90
2019-04-06T21:40:25.442Z,99.90
2019-04-06T21:42:54.142Z,99.90
2019-04-06T21:45:23.447Z,99.90
2019-04-06T21:47:51.462Z,99.90
2019-04-06T21:50:19.741Z,99.90
2019-04-06T21:52:49.589Z,99.90
2019-04-06T21:55:17.263Z,99.90
2019-04-06T21:57:45.749Z,99.90
2019-04-06T22:00:16.940Z,99.90
2019-04-06T22:02:45.882Z,99.90
2019-04-06T22:05:14.819Z,99.90
2019-04-06T22:07:49.596Z,99.90
2019-04-06T22:10:11.799Z,99.90
2019-04-06T22:12:40.052Z,99.90
2019-04-06T22:15:08.902Z,99.90
2019-04-06T22:17:37.335Z,99.90
2019-04-06T22:20:05.780Z,99.90
2019-04-06T22:22:35.374Z,99.90
2019-04-06T22:25:03.099Z,99.90
2019-04-06T22:27:31.753Z,99.90
2019-04-06T22:30:00.233Z,99.90
2019-04-06T22:32:28.878Z,99.90
2019-04-06T22:34:56.990Z,99.90
2019-04-06T22:37:25.672Z,99.90
2019-04-06T22:39:53.990Z,99.90
2019-04-06T22:42:22.300Z,99.90
2019-04-06T22:44:51.098Z,99.90
2019-04-06T22:47:19.801Z,99.90
2019-04-06T22:49:48.177Z,99.90
2019-04-06T22:52:16.728Z,99.90
2019-04-06T22:54:45.063Z,99.90
2019-04-06T22:57:13.821Z,99.90
2019-04-06T22:59:43.119Z,99.90
2019-04-06T23:02:11.263Z,99.90
2019-04-06T23:04:50.626Z,99.90
2019-04-06T23:07:17.932Z,99.90
2019-04-06T23:09:46.656Z,99.90
2019-04-06T23:12:15.606Z,99.90
2019-04-06T23:14:44.516Z,99.90
2019-04-06T23:17:12.902Z,99.90
2019-04-06T23:19:41.995Z,99.90
2019-04-06T23:22:10.351Z,99.90
2019-04-06T23:24:38.989Z,99.90
2019-04-06T23:27:07.913Z,99.90
2019-04-06T23:29:36.491Z,99.90
2019-04-06T23:32:05.333Z,99.90
2019-04-06T23:34:34.007Z,99.90
2019-04-06T23:37:02.472Z,99.90
2019-04-06T23:39:30.763Z,99.90
2019-04-06T23:42:00.143Z,99.90
2019-04-06T23:44:28.321Z,99.90
2019-04-06T23:46:56.733Z,99.90
2019-04-06T23:49:25.751Z,99.90
2019-04-06T23:51:54.299Z,99.90
2019-04-06T23:54:22.839Z,99.90
2019-04-06T23:56:51.334Z,99.90
2019-04-06T23:59:20.002Z,99.90
